Terminal Aerodrome Forecast
Issued by NWS Charleston, SC

Home | Current Version | Previous Version | Text Only | Print | Product List | Glossary On
Versions: 1 2 3 4 5 6 7 8 9 10 11 12 13 14 15 16 17 18
571
FTUS42 KCHS 261739
TAFSAV
TAF
KSAV 261739Z 2618/2718 10007KT P6SM VCSH SCT025 BKN150
     FM270000 05004KT P6SM SCT030 BKN150
     FM270800 35003KT 4SM BR SCT005 BKN010
     FM271400 34006KT P6SM SCT015 BKN035=

USA.gov is the U.S. government's official web portal to all federal, state and local government web resources and services.